Time;durP1;ratioP1;P1;durP2;ratioP2;P2;SDS_P1;SDS_P2;PMS_P1;PMS_P2;Temp;Humidity;BMP_temperature;BMP_pressure;BME280_temperature;BME280_humidity;BME280_pressure;Samples;Min_cycle;Max_cycle;Signal;HPM_P1;HPM_P2
2021/12/18 04:03:06;;;;;;;46.15;17.52;;;7.40;96.30;;;;;;5111825;27;20151;-38
2021/12/18 04:05:31;;;;;;;43.28;17.52;;;7.50;96.40;;;;;;5111066;28;20020;-39
2021/12/18 04:08:08;;;;;;;45.10;17.35;;;7.50;96.30;;;;;;5111073;28;20020;-39
2021/12/18 04:10:36;;;;;;;47.67;19.20;;;7.70;96.50;;;;;;5111308;28;20028;-38
2021/12/18 04:13:02;;;;;;;47.65;15.95;;;7.60;96.40;;;;;;5111144;28;20023;-38
2021/12/18 04:15:27;;;;;;;51.30;20.00;;;7.70;96.50;;;;;;5111026;28;20031;-40
2021/12/18 04:17:53;;;;;;;49.53;17.42;;;8.00;96.60;;;;;;5111024;28;20351;-39
2021/12/18 04:20:19;;;;;;;45.85;16.67;;;8.10;96.30;;;;;;5110936;28;20073;-38
2021/12/18 04:22:44;;;;;;;55.40;18.00;;;7.90;95.90;;;;;;5110778;28;20432;-39
2021/12/18 04:25:10;;;;;;;48.92;16.80;;;8.10;95.90;;;;;;5110723;28;20016;-38
2021/12/18 04:27:36;;;;;;;43.17;17.48;;;8.00;95.80;;;;;;5110795;28;20077;-37
2021/12/18 04:30:03;;;;;;;51.38;16.55;;;8.20;95.60;;;;;;5110441;28;20027;-38
2021/12/18 04:32:28;;;;;;;43.13;17.02;;;8.30;95.50;;;;;;5110585;28;20024;-38
2021/12/18 04:34:54;;;;;;;45.42;17.55;;;8.30;95.10;;;;;;5109352;28;20023;-39
2021/12/18 04:37:20;;;;;;;45.55;16.52;;;8.10;94.80;;;;;;5110565;28;20135;-39
2021/12/18 04:39:46;;;;;;;48.85;17.13;;;7.90;94.70;;;;;;5111223;28;20395;-39
2021/12/18 04:42:12;;;;;;;37.45;17.00;;;7.90;94.90;;;;;;5110296;28;20062;-38
2021/12/18 04:44:38;;;;;;;38.80;16.42;;;7.80;95.00;;;;;;5110707;28;20023;-39
2021/12/18 04:47:03;;;;;;;39.53;14.85;;;7.80;95.20;;;;;;5110221;28;20506;-39
2021/12/18 04:49:29;;;;;;;40.25;16.75;;;7.80;95.20;;;;;;5110882;28;20050;-38
2021/12/18 04:51:55;;;;;;;35.83;16.75;;;7.70;95.30;;;;;;5110789;28;20363;-38
2021/12/18 04:54:21;;;;;;;36.85;15.57;;;7.80;95.40;;;;;;5109972;28;20024;-38
2021/12/18 04:56:46;;;;;;;43.97;16.00;;;7.70;95.50;;;;;;5110045;28;20108;-39
2021/12/18 04:59:12;;;;;;;37.55;16.08;;;7.70;95.60;;;;;;5109943;28;20063;-39
2021/12/18 05:01:39;;;;;;;37.95;16.27;;;7.70;95.70;;;;;;5109835;28;20043;-37
2021/12/18 05:04:09;;;;;;;39.33;15.48;;;7.70;95.60;;;;;;5110088;28;20099;-40
2021/12/18 05:06:37;;;;;;;37.20;17.33;;;7.70;95.60;;;;;;5110188;28;20019;-37
2021/12/18 05:09:04;;;;;;;33.58;15.73;;;7.70;95.80;;;;;;5110040;28;20468;-38
2021/12/18 05:11:30;;;;;;;36.83;13.77;;;7.70;95.80;;;;;;5109690;28;20028;-39
2021/12/18 05:13:55;;;;;;;33.47;15.13;;;7.80;95.90;;;;;;5099076;28;20026;-39
2021/12/18 05:16:21;;;;;;;35.45;13.20;;;7.90;96.00;;;;;;5096270;28;20035;-39
2021/12/18 05:18:47;;;;;;;36.72;14.43;;;8.10;95.90;;;;;;5096109;28;20039;-39
2021/12/18 05:21:12;;;;;;;42.15;14.32;;;8.30;95.50;;;;;;5094477;28;20035;-39
2021/12/18 05:23:38;;;;;;;41.50;14.55;;;8.30;95.00;;;;;;5096079;28;20056;-38
2021/12/18 05:26:04;;;;;;;36.67;13.02;;;8.30;94.80;;;;;;5095925;28;20034;-38
2021/12/18 05:28:29;;;;;;;36.33;14.00;;;8.40;94.60;;;;;;5095733;28;20095;-38
2021/12/18 05:30:55;;;;;;;45.60;15.05;;;8.50;94.20;;;;;;5095712;28;20055;-38
2021/12/18 05:33:21;;;;;;;43.58;14.63;;;8.40;93.80;;;;;;5095829;28;20050;-39
2021/12/18 05:35:46;;;;;;;35.92;13.07;;;8.40;93.90;;;;;;5094758;28;20024;-38
2021/12/18 05:38:12;;;;;;;27.45;10.98;;;8.30;94.00;;;;;;5096109;28;20058;-40
2021/12/18 05:40:38;;;;;;;29.83;11.23;;;8.40;93.80;;;;;;5095920;28;20024;-39
2021/12/18 05:43:06;;;;;;;30.77;13.95;;;8.30;93.80;;;;;;5095849;28;20084;-38
2021/12/18 05:45:31;;;;;;;41.78;11.90;;;8.40;93.80;;;;;;5095465;28;20053;-38
2021/12/18 05:47:57;;;;;;;41.58;15.10;;;8.40;93.70;;;;;;5095445;28;20476;-38
2021/12/18 05:50:27;;;;;;;37.30;14.20;;;8.30;93.80;;;;;;5094111;28;20032;-39
2021/12/18 05:52:54;;;;;;;46.38;13.73;;;8.30;94.00;;;;;;5095571;28;20048;-39
2021/12/18 05:55:22;;;;;;;40.95;13.63;;;8.30;94.10;;;;;;5095152;28;20044;-38
2021/12/18 05:57:48;;;;;;;38.03;13.18;;;8.30;94.30;;;;;;5095384;28;20095;-39
2021/12/18 06:00:15;;;;;;;43.83;14.55;;;8.30;94.30;;;;;;5095058;28;20122;-39
2021/12/18 06:02:40;;;;;;;31.90;12.43;;;8.20;94.40;;;;;;5094855;28;20136;-38
2021/12/18 06:05:07;;;;;;;40.70;14.00;;;8.30;94.60;;;;;;5095338;28;20025;-38
2021/12/18 06:10:18;;;;;;;36.00;10.43;;;8.30;94.30;;;;;;5094980;28;20497;-39
2021/12/18 06:12:43;;;;;;;31.90;12.57;;;8.30;94.10;;;;;;5094974;28;20028;-37
2021/12/18 06:15:09;;;;;;;29.38;11.88;;;8.30;94.30;;;;;;5095080;28;20026;-38
2021/12/18 06:17:35;;;;;;;33.72;12.70;;;8.20;94.40;;;;;;5095032;28;20082;-39
2021/12/18 06:20:00;;;;;;;32.72;12.38;;;8.00;94.60;;;;;;5095114;28;20036;-39
2021/12/18 06:22:26;;;;;;;30.55;10.85;;;7.90;94.80;;;;;;5094610;28;20028;-38
2021/12/18 06:24:51;;;;;;;35.08;12.68;;;7.90;95.00;;;;;;5092345;28;20016;-38
2021/12/18 06:27:17;;;;;;;35.08;14.10;;;8.00;95.20;;;;;;5094363;28;20028;-39
2021/12/18 06:29:43;;;;;;;37.58;16.13;;;7.90;95.10;;;;;;5094615;28;20028;-39
2021/12/18 06:32:09;;;;;;;34.85;14.23;;;7.90;95.30;;;;;;5094458;28;20024;-38
2021/12/18 06:34:35;;;;;;;34.10;12.77;;;7.80;95.30;;;;;;5094711;28;20027;-38
2021/12/18 06:37:01;;;;;;;39.70;14.50;;;7.80;95.30;;;;;;5094712;28;20081;-38
2021/12/18 06:39:26;;;;;;;48.38;17.65;;;7.80;95.50;;;;;;5094841;28;20040;-38
2021/12/18 06:41:53;;;;;;;43.70;14.98;;;7.80;95.70;;;;;;5093002;28;20031;-39
2021/12/18 06:44:19;;;;;;;38.50;15.43;;;7.80;95.80;;;;;;5094133;28;20115;-38
2021/12/18 06:46:45;;;;;;;36.00;16.10;;;7.80;95.90;;;;;;5094209;28;20131;-38
2021/12/18 06:49:10;;;;;;;48.05;17.42;;;7.80;96.00;;;;;;5094313;28;20028;-37
2021/12/18 06:51:37;;;;;;;48.40;15.55;;;7.80;96.10;;;;;;5093980;28;20107;-38
2021/12/18 06:54:02;;;;;;;44.75;17.92;;;7.80;96.10;;;;;;5094360;28;20451;-39
2021/12/18 06:56:28;;;;;;;53.67;19.42;;;7.70;96.10;;;;;;5094228;28;20028;-39
2021/12/18 06:58:54;;;;;;;56.00;17.52;;;7.80;96.20;;;;;;5094020;28;20020;-38
2021/12/18 07:01:19;;;;;;;41.42;14.88;;;7.90;96.20;;;;;;5092092;28;20087;-38
2021/12/18 07:03:45;;;;;;;49.58;17.77;;;7.90;96.10;;;;;;5093802;28;20023;-38
2021/12/18 07:06:11;;;;;;;37.45;14.13;;;8.00;96.10;;;;;;5093972;28;20024;-38
2021/12/18 07:08:36;;;;;;;38.80;12.27;;;8.20;96.00;;;;;;5094454;28;20348;-38
2021/12/18 07:11:02;;;;;;;44.22;15.48;;;8.20;95.50;;;;;;5093853;28;20522;-39
2021/12/18 07:13:28;;;;;;;36.10;14.13;;;8.30;95.30;;;;;;5093534;28;20028;-39
2021/12/18 07:15:54;;;;;;;37.10;12.75;;;8.30;94.60;;;;;;5093735;28;20032;-39
2021/12/18 07:18:20;;;;;;;42.85;14.38;;;8.30;94.20;;;;;;5093594;28;20040;-39
2021/12/18 07:20:46;;;;;;;40.45;15.27;;;8.20;94.30;;;;;;5093640;28;20036;-39
2021/12/18 07:23:11;;;;;;;51.25;17.08;;;8.10;94.50;;;;;;5092503;28;20028;-38
2021/12/18 07:25:37;;;;;;;63.03;17.77;;;8.10;94.70;;;;;;5092179;28;20452;-38
2021/12/18 07:28:03;;;;;;;56.78;17.70;;;8.00;94.70;;;;;;5093519;28;20016;-39
2021/12/18 07:30:29;;;;;;;45.28;15.48;;;8.00;94.80;;;;;;5094038;28;20047;-39
2021/12/18 07:32:55;;;;;;;66.82;19.10;;;8.00;94.80;;;;;;5093401;28;20491;-39
2021/12/18 07:35:20;;;;;;;71.70;19.02;;;8.00;95.00;;;;;;5093426;28;20031;-39
2021/12/18 07:37:47;;;;;;;69.45;20.27;;;8.10;94.90;;;;;;5093367;28;20028;-39
2021/12/18 07:40:13;;;;;;;68.03;19.77;;;8.10;95.00;;;;;;5093594;28;20098;-38
2021/12/18 07:42:39;;;;;;;63.63;16.65;;;8.30;94.90;;;;;;5092861;28;20024;-38
2021/12/18 07:45:06;;;;;;;67.65;19.38;;;8.20;94.80;;;;;;5093302;28;20023;-38
2021/12/18 07:47:32;;;;;;;52.47;16.88;;;8.00;94.80;;;;;;5092956;28;20020;-38
2021/12/18 07:49:58;;;;;;;48.85;16.23;;;7.90;94.80;;;;;;5093006;28;20464;-38
2021/12/18 07:52:27;;;;;;;50.92;16.48;;;7.80;94.80;;;;;;5102261;28;20039;-43
2021/12/18 07:54:52;;;;;;;40.22;15.43;;;7.90;95.00;;;;;;5075516;28;20503;-38
2021/12/18 07:57:18;;;;;;;38.13;14.15;;;7.90;95.00;;;;;;5092757;28;20021;-38
2021/12/18 07:59:44;;;;;;;42.30;16.30;;;7.90;95.00;;;;;;5092635;28;20069;-39
2021/12/18 14:03:06;;;;;;;24.60;10.90;;;6.30;95.40;;;;;;5130049;27;20114;-40
2021/12/18 14:05:31;;;;;;;24.00;10.45;;;6.50;95.70;;;;;;5112947;28;20114;-39
2021/12/18 14:07:57;;;;;;;21.95;11.73;;;6.70;95.70;;;;;;5112509;28;20027;-39
2021/12/18 14:10:23;;;;;;;35.72;12.50;;;6.80;95.50;;;;;;5130720;28;20333;-38
2021/12/18 14:12:49;;;;;;;25.25;10.52;;;6.90;95.40;;;;;;5131641;28;20024;-39
2021/12/18 14:15:18;;;;;;;24.35;10.95;;;7.00;94.90;;;;;;5112668;28;20032;-40
2021/12/18 14:17:43;;;;;;;35.50;11.55;;;7.00;94.10;;;;;;5121949;27;20019;-39
2021/12/18 14:20:12;;;;;;;33.55;12.13;;;7.00;93.60;;;;;;5151349;27;20390;-39
2021/12/18 14:22:40;;;;;;;32.60;13.98;;;7.00;93.60;;;;;;5151333;27;20071;-39
2021/12/18 14:25:11;;;;;;;43.47;16.25;;;6.90;93.20;;;;;;5151321;27;20026;-38
2021/12/18 14:27:46;;;;;;;37.38;14.63;;;6.90;93.20;;;;;;5151270;27;20118;-39
2021/12/18 14:30:22;;;;;;;28.27;13.88;;;6.90;93.60;;;;;;5151785;27;20425;-39
2021/12/18 14:32:52;;;;;;;22.50;10.20;;;7.00;93.40;;;;;;5151447;27;20062;-39
2021/12/18 14:35:19;;;;;;;23.92;11.15;;;7.00;92.90;;;;;;5151353;27;20027;-39
2021/12/18 14:37:54;;;;;;;18.90;9.27;;;6.80;92.70;;;;;;5151410;27;20034;-39
2021/12/18 14:40:24;;;;;;;24.83;10.55;;;6.80;93.40;;;;;;5133073;27;20497;-40
2021/12/18 14:43:06;;;;;;;22.58;11.32;;;6.80;93.10;;;;;;5151076;27;20102;-41
2021/12/18 14:45:34;;;;;;;21.30;10.38;;;6.90;93.10;;;;;;5151354;27;20058;-39
2021/12/18 14:48:02;;;;;;;24.30;9.95;;;7.00;93.10;;;;;;5151632;27;20044;-45
2021/12/18 14:50:32;;;;;;;26.98;11.15;;;7.10;92.70;;;;;;5132505;27;20403;-38
2021/12/18 14:53:02;;;;;;;21.43;10.33;;;7.10;92.50;;;;;;5151211;27;20026;-39
2021/12/18 14:55:37;;;;;;;18.50;8.45;;;7.00;92.20;;;;;;5151776;27;20030;-39
2021/12/18 14:58:08;;;;;;;20.70;9.73;;;6.90;92.30;;;;;;5151285;27;20432;-39
2021/12/18 15:00:58;;;;;;;17.85;8.27;;;7.00;92.80;;;;;;5150977;27;20058;-38
2021/12/18 15:03:38;;;;;;;8.38;4.10;;;7.00;92.20;;;;;;5150787;27;20068;-39
2021/12/18 15:06:22;;;;;;;5.60;3.58;;;6.70;91.30;;;;;;5151144;27;20110;-39
2021/12/18 15:08:57;;;;;;;7.32;3.92;;;6.70;91.70;;;;;;5151834;27;20365;-39
2021/12/18 15:11:32;;;;;;;4.63;3.28;;;6.70;91.90;;;;;;5150973;27;20027;-48
2021/12/18 15:14:09;;;;;;;3.17;2.58;;;6.70;92.00;;;;;;5139994;27;20423;-39
2021/12/18 15:16:40;;;;;;;5.47;3.30;;;6.80;91.90;;;;;;5137017;27;20027;-38
2021/12/18 15:19:07;;;;;;;5.45;4.32;;;6.80;91.60;;;;;;5137131;27;20032;-39
2021/12/18 15:21:34;;;;;;;5.72;3.97;;;6.80;91.40;;;;;;5136876;27;20383;-38
2021/12/18 15:24:02;;;;;;;7.32;3.75;;;6.80;91.80;;;;;;5136490;27;20422;-39
2021/12/18 15:26:29;;;;;;;7.55;3.50;;;6.90;92.00;;;;;;5136752;27;20015;-40
2021/12/18 15:28:55;;;;;;;7.07;4.40;;;6.80;91.80;;;;;;5136492;27;20073;-52
2021/12/18 15:31:21;;;;;;;9.75;4.57;;;6.80;92.00;;;;;;5137243;27;20487;-50
2021/12/18 15:33:47;;;;;;;6.68;4.45;;;7.00;92.10;;;;;;5136485;27;20046;-50
2021/12/18 15:36:13;;;;;;;4.75;3.80;;;6.90;91.50;;;;;;5101372;27;20213;-50
2021/12/18 15:38:38;;;;;;;5.13;3.97;;;6.80;91.60;;;;;;5136736;27;20038;-51
2021/12/18 15:41:05;;;;;;;6.43;4.93;;;6.80;92.30;;;;;;5136916;27;20030;-48
2021/12/18 15:43:30;;;;;;;9.73;4.85;;;6.80;92.30;;;;;;5136791;27;20046;-53
2021/12/18 15:45:56;;;;;;;6.57;4.78;;;6.80;92.20;;;;;;5136644;27;20020;-52
2021/12/18 15:48:22;;;;;;;7.68;5.28;;;6.80;91.90;;;;;;5136568;27;20023;-48
2021/12/18 15:50:48;;;;;;;8.82;5.40;;;6.90;92.10;;;;;;5136489;27;20094;-51
2021/12/18 15:53:14;;;;;;;8.15;5.95;;;6.90;91.90;;;;;;5136115;27;20058;-50
2021/12/18 15:55:40;;;;;;;9.48;5.40;;;6.90;91.90;;;;;;5136233;27;20072;-50
2021/12/18 15:58:06;;;;;;;6.97;5.03;;;6.90;91.90;;;;;;5135872;27;20027;-54
2021/12/18 16:00:34;;;;;;;12.48;6.40;;;6.90;91.80;;;;;;5135906;27;20527;-48
2021/12/18 16:02:59;;;;;;;9.50;6.60;;;6.80;91.90;;;;;;5135726;27;20035;-49
2021/12/18 16:05:27;;;;;;;12.85;5.85;;;6.70;91.90;;;;;;5136543;27;20053;-48
2021/12/18 16:07:55;;;;;;;6.43;4.45;;;6.80;92.40;;;;;;5137211;27;20023;-48
2021/12/18 16:10:22;;;;;;;9.35;5.40;;;6.70;92.30;;;;;;5135890;27;20384;-49
2021/12/18 16:12:48;;;;;;;10.15;6.15;;;6.70;92.30;;;;;;5135662;27;20056;-48
2021/12/18 16:15:14;;;;;;;8.73;6.32;;;6.70;92.50;;;;;;5136415;27;20068;-52
2021/12/18 16:17:40;;;;;;;7.70;4.93;;;6.80;92.50;;;;;;5135764;27;20035;-48
2021/12/18 16:20:11;;;;;;;7.85;5.50;;;6.80;92.50;;;;;;5135786;27;20031;-49
2021/12/18 16:22:37;;;;;;;7.05;4.63;;;6.80;92.10;;;;;;5135304;27;20110;-52
2021/12/18 16:25:05;;;;;;;7.53;5.22;;;6.80;92.40;;;;;;5134206;27;20149;-53
2021/12/18 16:27:31;;;;;;;7.72;5.22;;;6.80;92.10;;;;;;5135606;27;20059;-51
2021/12/18 16:29:57;;;;;;;7.97;5.07;;;6.80;92.00;;;;;;5135262;27;20031;-53
2021/12/18 16:32:23;;;;;;;9.07;5.78;;;6.80;92.10;;;;;;5135318;27;20313;-50
2021/12/18 16:34:49;;;;;;;11.32;5.15;;;6.80;92.30;;;;;;5135184;27;20034;-51
2021/12/18 16:37:15;;;;;;;10.40;6.53;;;6.70;92.50;;;;;;5135457;27;20023;-48
2021/12/18 16:39:43;;;;;;;8.70;5.00;;;6.80;92.70;;;;;;5116827;27;20031;-50
2021/12/18 16:42:09;;;;;;;7.88;5.55;;;6.80;92.20;;;;;;5135089;27;20031;-48
2021/12/18 16:44:35;;;;;;;9.93;6.32;;;6.90;92.20;;;;;;5134726;27;20544;-51
2021/12/18 16:47:01;;;;;;;11.18;7.40;;;6.90;91.90;;;;;;5134845;27;20139;-53
2021/12/18 16:49:26;;;;;;;7.65;5.78;;;6.80;92.10;;;;;;5134959;27;20083;-49
2021/12/18 16:51:52;;;;;;;8.20;4.78;;;6.90;92.10;;;;;;5134901;27;20019;-50
2021/12/18 16:54:18;;;;;;;5.40;4.40;;;6.90;92.00;;;;;;5135753;27;20071;-49
2021/12/18 16:56:44;;;;;;;7.65;5.78;;;6.80;91.90;;;;;;5134776;27;20406;-49
2021/12/18 16:59:10;;;;;;;5.28;4.22;;;6.80;91.90;;;;;;5135201;27;20087;-55
2021/12/18 17:01:35;;;;;;;7.78;4.95;;;6.90;92.10;;;;;;5134655;27;20427;-51
2021/12/18 17:04:08;;;;;;;6.22;4.45;;;6.90;92.10;;;;;;5116040;27;20508;-52
2021/12/18 17:06:34;;;;;;;5.85;4.25;;;6.90;91.80;;;;;;5134860;27;20046;-49
2021/12/18 17:08:59;;;;;;;6.65;5.03;;;6.90;91.80;;;;;;5134530;27;20019;-49
2021/12/18 17:11:28;;;;;;;8.25;5.35;;;7.00;91.70;;;;;;5134887;27;20100;-49
2021/12/18 17:13:53;;;;;;;12.85;6.15;;;7.20;91.30;;;;;;5135148;27;20492;-52
2021/12/18 17:16:20;;;;;;;9.88;5.63;;;7.00;90.90;;;;;;5134313;27;20072;-49
2021/12/18 17:18:46;;;;;;;7.47;5.07;;;6.90;91.60;;;;;;5134408;27;20097;-51
2021/12/18 17:21:12;;;;;;;6.15;4.80;;;6.90;91.70;;;;;;5134063;27;20066;-53
2021/12/18 17:23:39;;;;;;;11.93;6.75;;;6.80;92.10;;;;;;5134254;27;20030;-50
2021/12/18 17:26:05;;;;;;;8.10;5.40;;;6.80;92.30;;;;;;5134076;27;20098;-48
2021/12/18 17:28:31;;;;;;;5.90;3.95;;;6.70;92.70;;;;;;5134155;27;20058;-50
2021/12/18 17:31:00;;;;;;;7.75;4.82;;;6.70;92.70;;;;;;5115372;27;20027;-50
2021/12/18 17:33:28;;;;;;;7.60;4.75;;;6.80;92.60;;;;;;5134500;27;20484;-49
2021/12/18 17:35:54;;;;;;;5.82;4.45;;;6.60;92.70;;;;;;5098580;27;20088;-49
2021/12/18 17:38:21;;;;;;;9.88;4.70;;;6.70;93.00;;;;;;5133838;27;20116;-52
2021/12/18 17:40:47;;;;;;;6.60;4.70;;;6.80;93.00;;;;;;5134147;27;20382;-51
2021/12/18 17:43:14;;;;;;;7.22;5.10;;;6.80;92.90;;;;;;5115809;27;20049;-52
2021/12/18 17:45:40;;;;;;;6.57;4.63;;;6.70;92.80;;;;;;5134319;27;20039;-51
2021/12/18 17:48:06;;;;;;;8.77;4.68;;;6.60;93.10;;;;;;5134998;27;20019;-51
2021/12/18 17:50:37;;;;;;;7.55;4.65;;;6.80;93.20;;;;;;5135011;27;20029;-41
2021/12/18 17:53:04;;;;;;;7.43;5.13;;;6.80;92.80;;;;;;5115662;27;20110;-40
2021/12/18 17:55:30;;;;;;;9.50;5.63;;;6.70;92.70;;;;;;5134361;27;20114;-39
2021/12/18 17:57:56;;;;;;;12.20;6.13;;;6.60;92.80;;;;;;5115612;28;20443;-41
2021/12/18 18:00:25;;;;;;;11.60;6.65;;;6.60;93.10;;;;;;5133840;28;20088;-39
2021/12/18 18:02:52;;;;;;;11.13;7.00;;;6.80;93.20;;;;;;5133494;28;20023;-41
2021/12/18 18:05:19;;;;;;;9.75;6.03;;;6.70;92.90;;;;;;5133891;28;20029;-40
2021/12/18 18:07:49;;;;;;;10.10;6.50;;;6.80;93.00;;;;;;5133622;28;20335;-39
2021/12/18 18:10:19;;;;;;;10.48;6.57;;;6.70;92.90;;;;;;5134348;28;20065;-38
2021/12/18 18:12:45;;;;;;;12.32;7.47;;;6.80;93.10;;;;;;5134155;28;20027;-41
2021/12/18 18:15:11;;;;;;;12.30;6.63;;;6.80;92.90;;;;;;5133719;28;20038;-38
2021/12/18 18:17:36;;;;;;;10.25;6.70;;;6.70;92.90;;;;;;5133940;28;20023;-39
2021/12/18 18:20:04;;;;;;;12.45;7.97;;;6.70;93.20;;;;;;5116403;28;20023;-38
2021/12/18 18:22:29;;;;;;;11.50;8.50;;;6.80;93.10;;;;;;5133636;28;20023;-38
2021/12/18 18:24:55;;;;;;;10.85;7.25;;;6.80;92.70;;;;;;5133587;28;20030;-38
2021/12/18 18:27:21;;;;;;;11.80;7.70;;;6.80;92.90;;;;;;5115413;28;20483;-39
2021/12/18 18:29:48;;;;;;;11.50;7.55;;;6.80;92.80;;;;;;5133988;28;20430;-40
2021/12/18 18:32:14;;;;;;;15.82;9.20;;;6.80;92.80;;;;;;5133961;28;20028;-39
2021/12/18 18:34:40;;;;;;;14.40;9.38;;;6.90;92.90;;;;;;5133603;28;20027;-39
2021/12/18 18:37:07;;;;;;;21.33;11.02;;;6.90;92.60;;;;;;5115301;28;20024;-39
2021/12/18 18:39:34;;;;;;;21.02;10.35;;;6.80;92.50;;;;;;5133773;28;20034;-40
2021/12/18 18:42:00;;;;;;;15.95;10.10;;;6.90;92.70;;;;;;5133385;28;20029;-39
2021/12/18 18:44:28;;;;;;;19.05;10.73;;;6.90;92.70;;;;;;5133708;28;20037;-39
2021/12/18 18:47:01;;;;;;;21.20;10.60;;;7.20;92.70;;;;;;5133823;27;20114;-39
2021/12/18 18:49:27;;;;;;;18.20;10.77;;;6.90;92.30;;;;;;5136650;27;20058;-38
2021/12/18 18:51:53;;;;;;;18.85;9.90;;;6.80;92.70;;;;;;5137826;27;20038;-39
2021/12/18 18:54:19;;;;;;;17.90;9.43;;;7.00;92.80;;;;;;5138084;27;20494;-38
2021/12/18 18:56:44;;;;;;;15.70;9.20;;;6.90;92.60;;;;;;5137187;27;20107;-41
2021/12/18 18:59:10;;;;;;;21.60;10.85;;;7.00;92.80;;;;;;5137283;27;20034;-39
2021/12/18 19:01:36;;;;;;;16.48;8.95;;;7.00;92.40;;;;;;5137082;27;20019;-38
2021/12/18 19:04:03;;;;;;;16.83;10.57;;;7.00;92.30;;;;;;5136895;27;20114;-40
2021/12/18 19:06:28;;;;;;;11.38;8.05;;;6.90;92.60;;;;;;5137517;27;20380;-39
2021/12/18 19:08:54;;;;;;;14.38;8.48;;;7.00;92.40;;;;;;5137678;27;20034;-39
2021/12/18 19:11:20;;;;;;;12.70;8.15;;;7.10;92.30;;;;;;5137431;27;20031;-40
2021/12/18 19:13:47;;;;;;;14.80;8.88;;;7.00;91.70;;;;;;5119315;27;20458;-39
2021/12/18 19:16:13;;;;;;;15.13;9.45;;;7.10;91.70;;;;;;5137315;27;20027;-38
2021/12/18 19:18:47;;;;;;;15.35;9.38;;;6.90;92.00;;;;;;5137373;27;20031;-38
2021/12/18 19:21:16;;;;;;;14.23;7.93;;;7.00;92.40;;;;;;5137006;27;20068;-38
2021/12/18 19:23:42;;;;;;;12.05;8.02;;;7.00;92.50;;;;;;5136820;27;20068;-40
2021/12/18 19:26:08;;;;;;;12.10;7.68;;;6.90;92.30;;;;;;5137140;27;20023;-39
2021/12/18 19:28:34;;;;;;;13.82;7.72;;;7.00;92.20;;;;;;5136899;27;20393;-40
2021/12/18 19:31:00;;;;;;;12.45;8.90;;;6.90;92.20;;;;;;5137308;27;20019;-39
2021/12/18 19:33:25;;;;;;;17.05;10.20;;;7.00;92.50;;;;;;5136888;27;20020;-40
2021/12/18 19:35:51;;;;;;;15.45;9.65;;;7.10;92.20;;;;;;5118309;27;20015;-38
2021/12/18 19:38:17;;;;;;;16.73;8.68;;;7.10;92.00;;;;;;5136684;27;20035;-38
2021/12/18 19:40:44;;;;;;;14.95;7.88;;;7.10;92.20;;;;;;5137001;27;20027;-39
2021/12/18 19:43:11;;;;;;;14.13;8.27;;;7.10;92.00;;;;;;5136745;27;20141;-39
2021/12/18 19:45:37;;;;;;;14.73;8.10;;;7.20;92.30;;;;;;5118302;27;20427;-38
2021/12/18 19:48:04;;;;;;;13.18;8.38;;;7.20;92.00;;;;;;5136700;27;20019;-38
2021/12/18 19:50:30;;;;;;;15.20;8.77;;;7.10;92.10;;;;;;5137663;27;20023;-39
2021/12/18 19:52:57;;;;;;;12.52;8.38;;;7.00;92.40;;;;;;5138148;27;20027;-39
2021/12/18 19:55:24;;;;;;;18.67;10.75;;;7.00;92.80;;;;;;5138035;27;20027;-39
2021/12/18 19:57:55;;;;;;;21.20;9.70;;;7.10;92.80;;;;;;5137939;27;20027;-40
2021/12/18 20:00:23;;;;;;;19.20;10.63;;;7.10;92.70;;;;;;5137438;27;20063;-39
2021/12/18 20:05:17;;;;;;;23.85;13.88;;;7.00;93.30;;;;;;5136364;27;20027;-39
2021/12/18 20:07:43;;;;;;;23.83;11.80;;;7.00;93.30;;;;;;5117779;27;20026;-38
2021/12/18 20:10:11;;;;;;;24.15;11.32;;;7.00;93.30;;;;;;5135947;27;20043;-39
2021/12/18 20:12:38;;;;;;;22.30;13.40;;;7.20;93.00;;;;;;5136105;27;20450;-46
2021/12/18 20:15:06;;;;;;;22.05;12.35;;;7.20;93.10;;;;;;5135777;27;20030;-39
2021/12/18 20:17:32;;;;;;;20.77;12.30;;;7.10;92.90;;;;;;5136424;27;20023;-39
2021/12/18 20:19:57;;;;;;;21.58;12.30;;;7.00;93.40;;;;;;5136253;27;20080;-39
2021/12/18 20:22:23;;;;;;;23.27;12.48;;;6.90;93.60;;;;;;5135701;27;20107;-39
2021/12/18 20:24:49;;;;;;;23.50;13.07;;;6.90;93.90;;;;;;5136169;27;20030;-39
2021/12/18 20:27:15;;;;;;;26.35;13.55;;;6.90;94.10;;;;;;5135729;27;20039;-39
2021/12/18 20:29:41;;;;;;;24.65;13.45;;;6.90;94.00;;;;;;5135216;27;20374;-39
2021/12/18 20:32:10;;;;;;;23.17;12.93;;;6.90;94.40;;;;;;5135742;27;20027;-38
2021/12/18 20:34:35;;;;;;;24.27;13.43;;;6.80;94.30;;;;;;5117738;27;20031;-39
2021/12/18 20:37:06;;;;;;;25.10;13.57;;;6.80;94.60;;;;;;5135591;27;20029;-39
2021/12/18 20:39:33;;;;;;;21.92;12.65;;;6.80;94.70;;;;;;5135877;27;20397;-39
2021/12/18 20:41:59;;;;;;;24.83;14.95;;;6.80;94.80;;;;;;5135518;27;20359;-39
2021/12/18 20:44:25;;;;;;;23.42;12.27;;;6.80;94.90;;;;;;5135224;27;20031;-39
2021/12/18 20:46:51;;;;;;;24.92;14.60;;;6.70;95.00;;;;;;5136223;27;20023;-38
2021/12/18 20:49:17;;;;;;;24.95;13.55;;;6.70;95.10;;;;;;5135106;27;20068;-38
2021/12/18 20:51:43;;;;;;;21.75;12.80;;;6.80;95.20;;;;;;5135203;27;20019;-40
2021/12/18 20:54:12;;;;;;;27.48;13.77;;;6.80;95.10;;;;;;5135052;27;20029;-40
2021/12/18 20:56:38;;;;;;;23.83;13.63;;;6.80;95.10;;;;;;5135016;27;20027;-38
2021/12/18 20:59:05;;;;;;;24.17;13.80;;;6.80;95.00;;;;;;5116588;27;20037;-38
2021/12/18 21:01:32;;;;;;;23.73;12.77;;;6.90;94.90;;;;;;5116603;27;20023;-39
2021/12/18 21:04:03;;;;;;;22.35;13.45;;;6.80;94.80;;;;;;5135311;27;20370;-39
2021/12/18 21:06:30;;;;;;;24.08;14.38;;;6.80;94.90;;;;;;5135108;27;20069;-39
2021/12/18 21:08:57;;;;;;;24.77;14.10;;;6.90;95.00;;;;;;5134561;27;20023;-40
2021/12/18 21:11:24;;;;;;;24.10;13.13;;;7.00;94.80;;;;;;5115788;27;20372;-39
2021/12/18 21:13:50;;;;;;;27.88;14.38;;;6.90;94.60;;;;;;5116524;27;20072;-38
2021/12/18 21:16:18;;;;;;;29.50;15.60;;;6.90;94.70;;;;;;5134902;27;20038;-39
2021/12/18 21:18:44;;;;;;;23.40;12.63;;;6.90;94.70;;;;;;5134404;27;20079;-39
2021/12/18 21:21:12;;;;;;;22.55;12.63;;;7.00;94.70;;;;;;5134774;27;20023;-39
2021/12/18 21:23:40;;;;;;;25.23;13.57;;;7.10;94.60;;;;;;5134492;27;20028;-39
2021/12/18 21:26:08;;;;;;;21.15;13.15;;;7.00;94.40;;;;;;5134574;27;20408;-39
2021/12/18 21:28:34;;;;;;;23.83;12.90;;;6.90;94.30;;;;;;5134532;27;20094;-40
2021/12/18 21:31:01;;;;;;;22.95;14.48;;;7.00;94.50;;;;;;5134165;27;20046;-39
2021/12/18 21:33:28;;;;;;;24.30;14.05;;;6.90;94.50;;;;;;5134387;27;20118;-38
2021/12/18 21:38:43;;;;;;;26.88;15.77;;;6.90;94.50;;;;;;5134684;27;20083;-39
2021/12/18 21:41:09;;;;;;;29.88;15.63;;;7.00;94.70;;;;;;5115801;27;20026;-40
2021/12/18 21:43:36;;;;;;;28.55;15.77;;;7.10;94.40;;;;;;5134506;27;20033;-39
2021/12/18 21:46:08;;;;;;;26.92;15.77;;;7.00;94.30;;;;;;5134509;27;20023;-39
2021/12/18 21:48:34;;;;;;;28.38;15.30;;;7.00;94.30;;;;;;5116804;27;20340;-39
2021/12/18 21:51:01;;;;;;;21.75;13.60;;;7.00;94.30;;;;;;5134466;27;20151;-39
2021/12/18 21:53:27;;;;;;;28.58;15.32;;;6.90;94.40;;;;;;5134154;27;20023;-39
2021/12/18 21:55:53;;;;;;;25.55;14.27;;;6.90;94.60;;;;;;5134234;27;20119;-39
2021/12/18 21:58:21;;;;;;;26.02;14.68;;;6.90;94.60;;;;;;5133958;27;20019;-39
2021/12/18 22:00:48;;;;;;;28.00;13.15;;;7.00;94.80;;;;;;5133987;27;20023;-39
2021/12/18 22:03:14;;;;;;;26.83;15.35;;;7.00;94.70;;;;;;5133843;28;20042;-39
2021/12/18 22:05:40;;;;;;;27.05;14.93;;;7.10;94.50;;;;;;5134122;28;20024;-40
2021/12/18 22:08:08;;;;;;;25.88;15.07;;;6.90;94.50;;;;;;5133925;28;20106;-39
2021/12/18 22:10:36;;;;;;;25.48;13.80;;;7.10;94.60;;;;;;5133718;28;20474;-38
2021/12/18 22:13:02;;;;;;;29.83;15.63;;;7.20;94.40;;;;;;5098461;28;20027;-39
2021/12/18 22:15:29;;;;;;;27.80;15.57;;;7.20;94.30;;;;;;5134182;28;20027;-39
2021/12/18 22:17:56;;;;;;;23.90;14.80;;;7.20;94.20;;;;;;5134293;28;20111;-40
2021/12/18 22:20:23;;;;;;;26.35;13.85;;;7.10;94.10;;;;;;5116098;28;20030;-39
2021/12/18 22:22:49;;;;;;;25.63;14.45;;;7.00;94.20;;;;;;5134102;27;20043;-40
2021/12/18 22:25:15;;;;;;;27.38;13.90;;;7.00;94.50;;;;;;5138341;27;20102;-40
2021/12/18 22:27:45;;;;;;;27.27;14.48;;;7.00;94.50;;;;;;5138015;27;20117;-39
2021/12/18 22:30:11;;;;;;;;;;;6.90;94.60;;;;;;5138706;27;20031;-39
2021/12/18 22:32:37;;;;;;;32.25;15.43;;;7.10;94.50;;;;;;5119572;27;20255;-39
2021/12/18 22:35:05;;;;;;;24.67;14.13;;;7.10;94.50;;;;;;5138676;27;20026;-39
2021/12/18 22:37:30;;;;;;;27.50;15.65;;;7.10;94.40;;;;;;5137579;27;20027;-38
2021/12/18 22:39:56;;;;;;;22.08;15.60;;;7.00;94.30;;;;;;5119002;27;20411;-40
2021/12/18 22:42:22;;;;;;;27.85;15.70;;;7.00;94.40;;;;;;5137956;27;20068;-39
2021/12/18 22:44:48;;;;;;;27.27;15.48;;;7.00;94.40;;;;;;5137284;27;20102;-38
2021/12/18 22:47:14;;;;;;;33.13;17.42;;;7.10;94.40;;;;;;5137244;27;20130;-39
2021/12/18 22:49:40;;;;;;;26.05;16.27;;;7.20;94.30;;;;;;5137533;27;20540;-37
2021/12/18 22:52:07;;;;;;;29.02;15.50;;;7.20;93.90;;;;;;5137408;27;20023;-38